createdAt,value
2019-05-29T00:01:20.418Z,89.74
2019-05-29T00:03:47.654Z,89.94
2019-05-29T00:06:16.135Z,91.14
2019-05-29T00:08:44.656Z,91.48
2019-05-29T00:11:14.090Z,91.83
2019-05-29T00:13:43.613Z,90.78
2019-05-29T00:16:12.472Z,90.30
2019-05-29T00:18:40.963Z,90.51
2019-05-29T00:21:11.558Z,90.02
2019-05-29T00:23:39.570Z,90.58
2019-05-29T00:26:08.344Z,91.23
2019-05-29T00:28:36.904Z,91.54
2019-05-29T00:31:05.778Z,91.93
2019-05-29T00:33:34.407Z,91.64
2019-05-29T00:36:02.925Z,91.96
2019-05-29T00:38:31.379Z,91.58
2019-05-29T00:40:59.856Z,92.39
2019-05-29T00:43:28.313Z,92.88
2019-05-29T00:45:56.818Z,92.57
2019-05-29T00:48:25.257Z,92.38
2019-05-29T00:50:53.698Z,92.42
2019-05-29T00:53:22.219Z,91.95
2019-05-29T00:55:50.624Z,92.21
2019-05-29T00:58:19.799Z,92.17
2019-05-29T01:00:48.557Z,93.57
2019-05-29T01:03:17.921Z,93.92
2019-05-29T01:05:46.477Z,93.52
2019-05-29T01:08:15.017Z,93.69
2019-05-29T01:10:43.463Z,92.78
2019-05-29T01:13:13.037Z,92.77
2019-05-29T01:15:41.668Z,92.68
2019-05-29T01:18:10.109Z,92.75
2019-05-29T01:20:38.572Z,92.77
2019-05-29T01:23:07.087Z,92.75
2019-05-29T01:25:35.505Z,92.75
2019-05-29T01:28:04.189Z,92.56
2019-05-29T01:30:32.714Z,92.40
2019-05-29T01:33:01.254Z,92.28
2019-05-29T01:35:29.783Z,91.75
2019-05-29T01:37:58.254Z,91.08
2019-05-29T01:40:29.423Z,91.54
2019-05-29T01:42:56.900Z,91.97
2019-05-29T01:45:25.319Z,92.17
2019-05-29T01:47:53.803Z,92.26
2019-05-29T01:50:22.293Z,91.61
2019-05-29T01:52:50.726Z,91.90
2019-05-29T01:55:19.826Z,92.19
2019-05-29T01:57:48.366Z,91.60
2019-05-29T02:00:17.772Z,91.86
2019-05-29T02:02:46.316Z,92.11
2019-05-29T02:05:15.741Z,92.71
2019-05-29T02:07:44.332Z,93.14
2019-05-29T02:10:13.784Z,93.04
2019-05-29T02:12:42.210Z,93.58
2019-05-29T02:15:24.890Z,93.25
2019-05-29T02:17:41.625Z,92.93
2019-05-29T02:20:10.686Z,92.88
2019-05-29T02:22:39.138Z,93.14
2019-05-29T02:25:08.187Z,92.93
2019-05-29T02:27:36.660Z,93.02
2019-05-29T02:30:10.185Z,93.32
2019-05-29T02:32:38.607Z,93.17
2019-05-29T02:35:07.410Z,93.44
2019-05-29T02:37:35.902Z,93.44
2019-05-29T02:40:06.575Z,93.55
2019-05-29T02:42:35.148Z,93.83
2019-05-29T02:45:04.938Z,94.21
2019-05-29T02:47:33.348Z,94.39
2019-05-29T02:50:01.862Z,94.52
2019-05-29T02:52:30.837Z,94.77
2019-05-29T02:54:59.430Z,93.93
2019-05-29T02:57:29.052Z,93.40
2019-05-29T02:59:57.646Z,92.73
2019-05-29T03:02:27.744Z,93.46
2019-05-29T03:04:56.311Z,93.38
2019-05-29T03:07:26.316Z,93.67
2019-05-29T03:09:54.983Z,93.73
2019-05-29T03:12:25.041Z,93.67
2019-05-29T03:14:53.585Z,94.12
2019-05-29T03:17:23.641Z,94.65
2019-05-29T03:19:52.385Z,94.24
2019-05-29T03:22:20.779Z,94.45
2019-05-29T03:24:49.281Z,94.06
2019-05-29T03:27:17.743Z,94.28
2019-05-29T03:29:46.232Z,94.68
2019-05-29T03:32:14.898Z,94.19
2019-05-29T03:34:46.760Z,94.00
2019-05-29T03:37:13.575Z,93.94
2019-05-29T03:39:42.153Z,93.90
2019-05-29T03:42:10.569Z,94.43
2019-05-29T03:44:38.999Z,94.35
2019-05-29T03:47:07.574Z,94.31
2019-05-29T03:49:37.413Z,94.14
2019-05-29T03:52:06.402Z,94.19
2019-05-29T03:54:35.462Z,94.03
2019-05-29T03:57:04.170Z,94.04
2019-05-29T03:59:32.894Z,94.27
2019-05-29T04:02:01.405Z,94.77
2019-05-29T04:04:31.383Z,94.02
2019-05-29T04:06:59.990Z,94.21
2019-05-29T04:09:29.228Z,94.51
2019-05-29T04:11:58.086Z,94.18
2019-05-29T04:14:27.537Z,94.61
2019-05-29T04:17:00.407Z,93.37
2019-05-29T04:19:30.536Z,93.67
2019-05-29T04:22:03.151Z,93.83
2019-05-29T04:24:34.087Z,93.26
2019-05-29T04:27:04.099Z,93.47
2019-05-29T04:29:33.846Z,93.48
2019-05-29T04:32:02.794Z,93.41
2019-05-29T04:34:31.692Z,93.74
2019-05-29T04:37:01.460Z,94.14
2019-05-29T04:39:30.646Z,93.65
2019-05-29T04:41:59.160Z,94.50
2019-05-29T04:44:28.843Z,94.07
2019-05-29T04:47:10.534Z,93.81
2019-05-29T04:49:29.179Z,93.60
2019-05-29T04:51:57.623Z,92.85
2019-05-29T04:54:26.082Z,93.05
2019-05-29T04:56:54.502Z,93.17
2019-05-29T04:59:22.945Z,92.89
2019-05-29T05:01:51.371Z,92.87
2019-05-29T05:04:19.800Z,91.88
2019-05-29T05:06:48.268Z,91.85
2019-05-29T05:09:16.728Z,91.75
2019-05-29T05:11:45.250Z,91.85
2019-05-29T05:14:13.664Z,92.16
2019-05-29T05:16:42.109Z,91.88
2019-05-29T05:19:10.531Z,90.61
2019-05-29T05:21:40.160Z,89.85
2019-05-29T05:24:08.861Z,90.39
2019-05-29T05:26:38.429Z,88.07
2019-05-29T05:29:06.939Z,89.09
2019-05-29T05:31:36.496Z,88.83
2019-05-29T05:34:05.524Z,89.29
2019-05-29T05:36:34.706Z,88.75
2019-05-29T05:39:05.518Z,88.43
2019-05-29T05:41:34.744Z,88.36
2019-05-29T05:44:03.366Z,87.40
2019-05-29T05:46:32.870Z,88.61
2019-05-29T05:49:01.391Z,88.38
2019-05-29T05:51:31.164Z,89.08
2019-05-29T05:53:59.746Z,89.19
2019-05-29T05:56:28.264Z,88.95
2019-05-29T05:58:56.756Z,89.31
2019-05-29T06:01:25.238Z,88.99
2019-05-29T06:03:53.730Z,88.80
2019-05-29T06:06:22.177Z,88.67
2019-05-29T06:08:50.600Z,88.44
2019-05-29T06:11:19.010Z,88.26
2019-05-29T06:13:47.457Z,87.93
2019-05-29T06:16:15.931Z,87.73
2019-05-29T06:18:44.479Z,88.17
2019-05-29T06:21:13.032Z,88.28
2019-05-29T06:23:41.610Z,88.51
2019-05-29T06:26:10.111Z,88.15
2019-05-29T06:28:39.123Z,86.35
2019-05-29T06:31:07.670Z,85.11
2019-05-29T06:33:37.289Z,86.41
2019-05-29T06:36:05.875Z,86.34
2019-05-29T06:38:35.640Z,84.35
2019-05-29T06:41:04.287Z,83.27
2019-05-29T06:43:33.783Z,82.93
2019-05-29T06:46:02.304Z,82.27
2019-05-29T06:48:42.996Z,80.30
2019-05-29T06:51:02.309Z,80.03
2019-05-29T06:53:30.800Z,78.79
2019-05-29T06:56:01.005Z,79.97
2019-05-29T06:58:29.902Z,79.23
2019-05-29T07:00:58.405Z,77.67
2019-05-29T07:03:26.826Z,76.17
2019-05-29T07:05:55.630Z,76.47
2019-05-29T07:08:38.038Z,77.26
2019-05-29T07:10:54.329Z,76.67
2019-05-29T07:13:22.895Z,76.78
2019-05-29T07:15:51.393Z,76.05
2019-05-29T07:18:20.052Z,75.08
2019-05-29T07:20:48.557Z,74.52
2019-05-29T07:23:17.126Z,75.11
2019-05-29T07:25:45.799Z,74.61
2019-05-29T07:28:14.716Z,74.87
2019-05-29T07:30:49.586Z,75.31
2019-05-29T07:33:13.386Z,74.92
2019-05-29T07:35:41.895Z,74.75
2019-05-29T07:38:10.319Z,74.30
2019-05-29T07:40:40.512Z,74.57
2019-05-29T07:43:09.124Z,74.73
2019-05-29T07:45:37.872Z,75.91
2019-05-29T07:48:06.545Z,75.63
2019-05-29T07:50:35.003Z,77.90
2019-05-29T07:53:03.526Z,78.71
2019-05-29T07:55:31.967Z,78.48
2019-05-29T07:58:00.421Z,78.41
2019-05-29T08:00:35.889Z,79.22
2019-05-29T08:02:59.061Z,77.48
2019-05-29T08:05:27.617Z,76.53
2019-05-29T08:07:56.123Z,77.82
2019-05-29T08:10:24.703Z,77.22
2019-05-29T08:12:55.775Z,77.72
2019-05-29T08:15:23.485Z,76.51
2019-05-29T08:17:52.015Z,77.60
2019-05-29T08:20:20.605Z,75.99
2019-05-29T08:22:49.073Z,74.59
2019-05-29T08:25:17.946Z,76.14
2019-05-29T08:27:46.693Z,74.58
2019-05-29T08:30:15.868Z,74.95
2019-05-29T08:32:45.349Z,75.40
2019-05-29T08:35:15.031Z,74.56
2019-05-29T08:37:43.527Z,74.07
2019-05-29T08:40:12.206Z,72.49
2019-05-29T08:42:41.165Z,71.04
2019-05-29T08:45:10.186Z,69.49
2019-05-29T08:47:38.608Z,72.22
2019-05-29T08:50:18.153Z,71.14
2019-05-29T08:52:38.077Z,70.35
2019-05-29T08:55:06.975Z,69.51
2019-05-29T08:57:35.412Z,69.31
2019-05-29T09:00:09.122Z,70.11
2019-05-29T09:02:37.650Z,71.42
2019-05-29T09:05:08.040Z,67.60
2019-05-29T09:07:36.554Z,62.50
2019-05-29T09:10:09.797Z,59.71
2019-05-29T09:12:38.293Z,59.92
2019-05-29T09:15:10.795Z,60.24
2019-05-29T09:17:39.332Z,61.93
2019-05-29T09:20:25.310Z,61.72
2019-05-29T09:22:39.164Z,61.90
2019-05-29T09:25:08.132Z,66.05
2019-05-29T09:27:36.591Z,65.94
2019-05-29T09:30:06.984Z,63.83
2019-05-29T09:32:49.685Z,61.79
2019-05-29T09:35:06.479Z,61.84
2019-05-29T09:37:35.093Z,60.22
2019-05-29T09:40:05.096Z,61.52
2019-05-29T09:42:33.648Z,62.27
2019-05-29T09:45:02.151Z,63.10
2019-05-29T09:47:30.574Z,64.21
2019-05-29T09:49:59.025Z,65.88
2019-05-29T09:52:30.683Z,67.54
2019-05-29T09:54:58.290Z,66.86
2019-05-29T09:57:26.766Z,68.76
2019-05-29T09:59:56.383Z,69.41
2019-05-29T10:02:25.380Z,70.48
2019-05-29T10:04:54.841Z,69.01
2019-05-29T10:07:24.191Z,69.46
2019-05-29T10:09:53.676Z,67.41
2019-05-29T10:12:22.975Z,66.45
2019-05-29T10:14:51.604Z,70.10
2019-05-29T10:17:20.033Z,69.51
2019-05-29T10:19:48.445Z,65.90
2019-05-29T10:22:16.945Z,63.99
2019-05-29T10:24:45.468Z,63.49
2019-05-29T10:27:13.980Z,62.68
2019-05-29T10:29:42.533Z,63.15
2019-05-29T10:32:10.977Z,66.46
2019-05-29T10:34:39.555Z,64.43
2019-05-29T10:37:08.188Z,65.76
2019-05-29T10:39:36.621Z,68.98
2019-05-29T10:42:05.595Z,73.50
2019-05-29T10:44:34.086Z,72.16
2019-05-29T10:47:02.565Z,74.57
2019-05-29T10:49:31.078Z,74.53
2019-05-29T10:52:13.727Z,76.09
2019-05-29T10:54:29.765Z,76.83
2019-05-29T10:56:58.269Z,78.03
2019-05-29T10:59:26.792Z,81.46
2019-05-29T11:01:55.584Z,80.41
2019-05-29T11:04:24.142Z,79.72
2019-05-29T11:06:54.668Z,80.58
2019-05-29T11:09:22.836Z,77.44
2019-05-29T11:11:53.269Z,79.04
2019-05-29T11:14:21.657Z,78.95
2019-05-29T11:16:50.930Z,78.63
2019-05-29T11:19:19.541Z,78.74
2019-05-29T11:21:48.504Z,76.03
2019-05-29T11:24:18.189Z,79.81
2019-05-29T11:26:48.262Z,80.41
2019-05-29T11:29:16.851Z,78.45
2019-05-29T11:31:45.309Z,74.86
2019-05-29T11:34:13.887Z,79.46
2019-05-29T11:36:43.967Z,75.35
2019-05-29T11:39:13.990Z,74.31
2019-05-29T11:41:42.409Z,72.42
2019-05-29T11:44:10.900Z,73.05
2019-05-29T11:46:39.356Z,69.85
2019-05-29T11:49:07.831Z,71.20
2019-05-29T11:51:36.351Z,71.82
2019-05-29T11:54:05.410Z,67.08
2019-05-29T11:56:33.863Z,65.42
2019-05-29T11:59:03.176Z,65.18
2019-05-29T12:01:49.003Z,60.80
2019-05-29T12:04:24.166Z,65.07
2019-05-29T12:06:32.065Z,68.59
2019-05-29T12:09:01.902Z,67.20
2019-05-29T12:11:30.412Z,68.15
2019-05-29T12:14:00.551Z,69.02
2019-05-29T12:16:29.094Z,64.94
2019-05-29T12:18:57.839Z,61.43
2019-05-29T12:21:26.321Z,64.63
2019-05-29T12:23:54.746Z,65.44
2019-05-29T12:26:23.497Z,65.96
2019-05-29T12:28:53.926Z,65.54
2019-05-29T12:31:22.416Z,65.28
2019-05-29T12:33:50.852Z,66.41
2019-05-29T12:36:19.340Z,64.30
2019-05-29T12:38:47.787Z,67.49
2019-05-29T12:41:16.294Z,67.22
2019-05-29T12:43:44.887Z,65.41
2019-05-29T12:46:13.417Z,63.31
2019-05-29T12:48:41.848Z,60.50
2019-05-29T12:51:10.455Z,60.61
2019-05-29T12:53:39.014Z,60.09
2019-05-29T12:56:07.503Z,60.22
2019-05-29T12:58:36.099Z,60.02
2019-05-29T13:01:05.219Z,59.22
2019-05-29T13:03:34.304Z,59.83
2019-05-29T13:06:02.861Z,60.13
2019-05-29T13:08:31.508Z,61.35
2019-05-29T13:11:00.461Z,60.18
2019-05-29T13:13:29.018Z,60.05
2019-05-29T13:15:58.744Z,60.20
2019-05-29T13:18:27.472Z,59.47
2019-05-29T13:20:56.729Z,57.14
2019-05-29T13:23:25.387Z,58.12
2019-05-29T13:25:53.869Z,59.25
2019-05-29T13:28:22.427Z,54.92
2019-05-29T13:30:50.967Z,56.43
2019-05-29T13:33:19.482Z,60.11
2019-05-29T13:35:47.979Z,60.39
2019-05-29T13:38:16.445Z,58.96
2019-05-29T13:40:44.995Z,59.51
2019-05-29T13:43:15.814Z,57.91
2019-05-29T13:45:43.672Z,58.56
2019-05-29T13:48:12.223Z,60.69
2019-05-29T13:50:40.631Z,58.69
2019-05-29T13:53:09.162Z,58.98
2019-05-29T13:55:37.751Z,59.51
2019-05-29T13:58:06.303Z,59.52
2019-05-29T14:00:35.312Z,59.92
2019-05-29T14:03:04.878Z,59.93
2019-05-29T14:05:33.591Z,58.29
2019-05-29T14:08:02.723Z,58.67
2019-05-29T14:10:31.426Z,58.43
2019-05-29T14:13:00.919Z,57.23
2019-05-29T14:15:29.937Z,58.90
2019-05-29T14:17:58.445Z,56.52
2019-05-29T14:20:26.971Z,57.45
2019-05-29T14:22:55.500Z,57.71
2019-05-29T14:25:24.013Z,56.69
2019-05-29T14:27:52.641Z,58.28
2019-05-29T14:30:21.375Z,56.04
2019-05-29T14:32:49.902Z,55.15
2019-05-29T14:35:18.493Z,53.24
2019-05-29T14:37:46.959Z,52.43
2019-05-29T14:40:17.036Z,50.92
2019-05-29T14:42:45.443Z,51.30
2019-05-29T14:45:14.512Z,50.30
2019-05-29T14:47:43.035Z,52.45
2019-05-29T14:50:13.375Z,52.05
2019-05-29T14:52:42.050Z,53.01
2019-05-29T14:55:16.101Z,52.52
2019-05-29T14:57:41.328Z,52.75
2019-05-29T15:00:24.360Z,52.93
2019-05-29T15:02:44.608Z,54.05
2019-05-29T15:05:14.953Z,54.20
2019-05-29T15:07:43.772Z,53.88
2019-05-29T15:10:26.403Z,53.80
2019-05-29T15:12:44.377Z,54.70
2019-05-29T15:15:16.559Z,55.54
2019-05-29T15:17:44.646Z,55.19
2019-05-29T15:20:14.821Z,55.63
2019-05-29T15:22:44.157Z,55.65
2019-05-29T15:25:21.813Z,55.55
2019-05-29T15:27:43.495Z,55.08
2019-05-29T15:30:18.719Z,56.00
2019-05-29T15:32:42.657Z,55.07
2019-05-29T15:35:16.026Z,54.83
2019-05-29T15:37:42.234Z,53.83
2019-05-29T15:40:12.907Z,52.42
2019-05-29T15:42:41.487Z,52.23
2019-05-29T15:45:12.225Z,50.77
2019-05-29T15:47:40.722Z,52.18
2019-05-29T15:50:11.415Z,51.87
2019-05-29T15:52:40.119Z,52.56
2019-05-29T15:55:27.278Z,53.38
2019-05-29T15:57:40.089Z,53.45
2019-05-29T16:00:13.717Z,53.64
2019-05-29T16:02:42.502Z,54.57
2019-05-29T16:05:13.147Z,55.20
2019-05-29T16:07:41.798Z,56.78
2019-05-29T16:10:14.483Z,58.42
2019-05-29T16:12:42.278Z,59.10
2019-05-29T16:15:11.533Z,59.90
2019-05-29T16:17:41.556Z,60.93
2019-05-29T16:20:10.733Z,60.94
2019-05-29T16:22:39.495Z,61.20
2019-05-29T16:25:10.674Z,60.95
2019-05-29T16:27:39.474Z,59.92
2019-05-29T16:30:09.043Z,59.82
2019-05-29T16:32:37.589Z,61.07
2019-05-29T16:35:07.145Z,60.71
2019-05-29T16:37:35.687Z,61.23
2019-05-29T16:40:06.925Z,60.93
2019-05-29T16:42:35.553Z,62.56
2019-05-29T16:45:09.516Z,63.78
2019-05-29T16:47:38.377Z,63.21
2019-05-29T16:50:08.525Z,64.17
2019-05-29T16:52:37.336Z,65.61
2019-05-29T16:55:08.107Z,64.58
2019-05-29T16:57:36.630Z,64.90
2019-05-29T17:00:07.983Z,65.49
2019-05-29T17:02:36.490Z,64.59
2019-05-29T17:05:06.851Z,66.33
2019-05-29T17:07:35.382Z,65.69
2019-05-29T17:10:06.345Z,65.15
2019-05-29T17:12:34.878Z,65.44
2019-05-29T17:15:04.978Z,63.86
2019-05-29T17:17:33.566Z,64.33
2019-05-29T17:20:02.614Z,64.11
2019-05-29T17:22:31.146Z,64.32
2019-05-29T17:24:59.684Z,64.17
2019-05-29T17:27:28.286Z,65.13
2019-05-29T17:29:56.849Z,64.96
2019-05-29T17:32:25.439Z,65.27
2019-05-29T17:34:53.914Z,63.05
2019-05-29T17:37:23.132Z,64.56
2019-05-29T17:39:51.785Z,63.20
2019-05-29T17:42:20.373Z,59.31
2019-05-29T17:44:48.838Z,58.25
2019-05-29T17:47:17.750Z,57.26
2019-05-29T17:49:46.284Z,55.53
2019-05-29T17:52:15.735Z,55.09
2019-05-29T17:54:44.351Z,56.40
2019-05-29T17:57:12.833Z,56.72
2019-05-29T17:59:41.358Z,55.83
2019-05-29T18:02:09.899Z,55.15
2019-05-29T18:04:38.333Z,55.46
2019-05-29T18:07:06.806Z,56.73
2019-05-29T18:09:35.194Z,57.53
2019-05-29T18:12:03.792Z,57.83
2019-05-29T18:14:32.323Z,58.54
2019-05-29T18:17:00.762Z,59.04
2019-05-29T18:19:29.299Z,59.21
2019-05-29T18:21:58.072Z,58.59
2019-05-29T18:24:27.914Z,58.87
2019-05-29T18:26:59.085Z,58.92
2019-05-29T18:29:26.837Z,59.05
2019-05-29T18:31:55.355Z,59.80
2019-05-29T18:34:25.246Z,60.44
2019-05-29T18:36:53.970Z,60.70
2019-05-29T18:39:22.532Z,61.23
2019-05-29T18:41:51.118Z,61.17
2019-05-29T18:44:20.741Z,61.03
2019-05-29T18:46:49.365Z,61.36
2019-05-29T18:49:17.810Z,61.98
2019-05-29T18:51:46.317Z,62.17
2019-05-29T18:54:14.777Z,63.04
2019-05-29T18:56:43.285Z,63.42
2019-05-29T18:59:11.721Z,63.43
2019-05-29T19:01:40.331Z,64.58
2019-05-29T19:04:09.447Z,64.58
2019-05-29T19:06:37.922Z,64.49
2019-05-29T19:09:08.078Z,64.75
2019-05-29T19:11:36.501Z,66.00
2019-05-29T19:14:05.613Z,65.94
2019-05-29T19:16:34.193Z,66.73
2019-05-29T19:19:02.718Z,67.23
2019-05-29T19:21:32.765Z,67.75
2019-05-29T19:24:01.262Z,68.20
2019-05-29T19:26:33.681Z,68.72
2019-05-29T19:29:00.099Z,70.34
2019-05-29T19:31:29.142Z,70.62
2019-05-29T19:33:57.573Z,71.79
2019-05-29T19:36:26.087Z,71.87
2019-05-29T19:38:54.618Z,73.69
2019-05-29T19:41:23.946Z,74.19
2019-05-29T19:43:52.659Z,74.11
2019-05-29T19:46:21.141Z,73.98
2019-05-29T19:48:49.659Z,73.93
2019-05-29T19:51:18.172Z,74.85
2019-05-29T19:53:46.728Z,75.74
2019-05-29T19:56:15.235Z,75.59
2019-05-29T19:58:43.810Z,78.64
2019-05-29T20:01:12.322Z,77.75
2019-05-29T20:03:40.818Z,77.92
2019-05-29T20:06:09.390Z,78.92
2019-05-29T20:08:39.615Z,81.41
2019-05-29T20:11:08.393Z,81.11
2019-05-29T20:13:37.913Z,81.18
2019-05-29T20:16:06.587Z,81.64
2019-05-29T20:18:36.164Z,83.01
2019-05-29T20:21:04.922Z,83.35
2019-05-29T20:23:34.553Z,83.71
2019-05-29T20:26:03.206Z,84.73
2019-05-29T20:28:32.117Z,86.16
2019-05-29T20:31:00.642Z,86.86
2019-05-29T20:33:30.350Z,87.10
2019-05-29T20:35:59.198Z,86.58
2019-05-29T20:38:27.629Z,86.18
2019-05-29T20:40:56.948Z,86.33
2019-05-29T20:43:25.485Z,85.67
2019-05-29T20:45:53.969Z,84.84
2019-05-29T20:48:22.887Z,85.84
2019-05-29T20:50:51.356Z,85.82
2019-05-29T20:53:19.784Z,87.01
2019-05-29T20:55:48.253Z,88.61
2019-05-29T20:58:24.646Z,88.90
2019-05-29T21:00:47.031Z,88.43
2019-05-29T21:03:15.572Z,87.90
2019-05-29T21:05:44.069Z,88.98
2019-05-29T21:08:12.611Z,90.06
2019-05-29T21:10:42.052Z,89.43
2019-05-29T21:13:10.806Z,90.93
2019-05-29T21:15:40.365Z,90.95
2019-05-29T21:18:08.777Z,91.15
2019-05-29T21:20:38.347Z,90.92
2019-05-29T21:23:06.988Z,90.73
2019-05-29T21:25:36.622Z,90.51
2019-05-29T21:28:05.403Z,90.58
2019-05-29T21:30:35.433Z,91.00
2019-05-29T21:33:04.128Z,91.65
2019-05-29T21:35:32.593Z,91.24
2019-05-29T21:38:00.993Z,90.31
2019-05-29T21:40:29.416Z,88.70
2019-05-29T21:42:58.188Z,87.63
2019-05-29T21:45:26.711Z,87.72
2019-05-29T21:47:55.125Z,88.52
2019-05-29T21:50:24.495Z,89.54
2019-05-29T21:52:52.969Z,89.21
2019-05-29T21:55:21.465Z,90.21
2019-05-29T21:57:50.379Z,90.54
2019-05-29T22:00:23.848Z,90.99
2019-05-29T22:02:52.263Z,90.70
2019-05-29T22:05:21.055Z,91.40
2019-05-29T22:07:49.499Z,91.83
2019-05-29T22:10:18.313Z,91.28
2019-05-29T22:12:46.918Z,90.62
2019-05-29T22:15:16.121Z,90.34
2019-05-29T22:17:44.571Z,90.25
2019-05-29T22:20:13.135Z,91.86
2019-05-29T22:22:41.703Z,92.08
2019-05-29T22:25:10.191Z,92.27
2019-05-29T22:27:38.699Z,91.32
2019-05-29T22:30:08.227Z,92.78
2019-05-29T22:32:36.698Z,92.83
2019-05-29T22:35:06.898Z,93.43
2019-05-29T22:37:35.432Z,93.97
2019-05-29T22:40:06.078Z,93.72
2019-05-29T22:42:34.686Z,92.60
2019-05-29T22:45:03.317Z,93.13
2019-05-29T22:47:31.785Z,93.25
2019-05-29T22:50:00.347Z,92.84
2019-05-29T22:52:28.812Z,92.95
2019-05-29T22:54:58.037Z,93.04
2019-05-29T22:57:26.568Z,93.02
2019-05-29T22:59:55.901Z,93.48
2019-05-29T23:02:24.508Z,92.89
2019-05-29T23:04:54.146Z,93.63
2019-05-29T23:07:22.620Z,93.48
2019-05-29T23:09:52.132Z,93.18
2019-05-29T23:12:20.923Z,93.09
2019-05-29T23:14:49.373Z,93.13
2019-05-29T23:17:17.831Z,92.55
2019-05-29T23:19:46.320Z,92.78
2019-05-29T23:22:14.764Z,92.44
2019-05-29T23:24:43.176Z,92.37
2019-05-29T23:27:11.709Z,91.52
2019-05-29T23:29:48.886Z,91.72
2019-05-29T23:32:10.349Z,92.49
2019-05-29T23:34:38.856Z,92.80
2019-05-29T23:37:07.341Z,92.95
2019-05-29T23:39:35.801Z,93.07
2019-05-29T23:42:04.354Z,93.23
2019-05-29T23:44:32.765Z,93.45
2019-05-29T23:47:01.804Z,93.76
2019-05-29T23:49:30.289Z,93.60
2019-05-29T23:51:59.708Z,93.95
2019-05-29T23:54:28.306Z,94.26
2019-05-29T23:56:57.885Z,94.64
2019-05-29T23:59:26.449Z,94.41
